createdAt,value
2022-11-30T00:01:25.261Z,3.23
2022-11-30T00:03:57.263Z,2.90
2022-11-30T00:06:25.577Z,3.02
2022-11-30T00:08:57.378Z,3.05
2022-11-30T00:11:27.505Z,3.16
2022-11-30T00:13:55.084Z,3.06
2022-11-30T00:16:22.738Z,3.08
2022-11-30T00:18:50.260Z,2.82
2022-11-30T00:21:19.735Z,2.87
2022-11-30T00:23:48.516Z,3.33
2022-11-30T00:26:19.009Z,3.29
2022-11-30T00:28:48.540Z,3.29
2022-11-30T00:31:18.590Z,3.02
2022-11-30T00:33:46.271Z,3.12
2022-11-30T00:36:24.713Z,3.08
2022-11-30T00:38:52.456Z,3.11
2022-11-30T00:41:20.388Z,3.13
2022-11-30T00:43:51.108Z,3.38
2022-11-30T00:46:18.260Z,3.07
2022-11-30T00:48:47.706Z,3.19
2022-11-30T00:51:15.058Z,3.33
2022-11-30T00:53:42.462Z,2.93
2022-11-30T00:56:10.631Z,3.06
2022-11-30T00:58:37.887Z,2.75
2022-11-30T01:01:05.411Z,2.85
2022-11-30T01:03:34.730Z,2.87
2022-11-30T01:06:07.612Z,2.63
2022-11-30T01:08:40.245Z,3.08
2022-11-30T01:11:18.290Z,3.15
2022-11-30T01:13:45.369Z,2.69
2022-11-30T01:16:18.596Z,2.88
2022-11-30T01:18:45.903Z,2.45
2022-11-30T01:21:18.337Z,2.79
2022-11-30T01:23:46.068Z,2.66
2022-11-30T01:26:13.552Z,2.85
2022-11-30T01:28:46.823Z,2.81
2022-11-30T01:31:15.141Z,2.90
2022-11-30T01:33:45.210Z,2.80
2022-11-30T01:36:21.544Z,2.41
2022-11-30T01:38:53.203Z,2.68
2022-11-30T01:41:31.069Z,2.68
2022-11-30T01:44:20.149Z,2.54
2022-11-30T01:47:09.322Z,2.95
2022-11-30T01:50:05.138Z,3.03
2022-11-30T01:52:47.239Z,2.84
2022-11-30T01:55:36.083Z,2.63
2022-11-30T01:58:17.668Z,2.97
2022-11-30T02:00:48.776Z,2.49
2022-11-30T02:03:42.363Z,3.06
2022-11-30T02:06:10.022Z,2.83
2022-11-30T02:08:37.204Z,2.81
2022-11-30T02:11:11.284Z,3.07
2022-11-30T02:14:06.008Z,2.75
2022-11-30T02:16:59.087Z,2.93
2022-11-30T02:19:50.818Z,3.12
2022-11-30T02:22:29.785Z,2.90
2022-11-30T02:25:26.017Z,2.67
2022-11-30T02:28:32.838Z,2.71
2022-11-30T02:31:02.449Z,2.74
2022-11-30T02:33:34.058Z,3.04
2022-11-30T02:36:03.837Z,3.35
2022-11-30T02:38:31.001Z,3.05
2022-11-30T02:40:58.042Z,2.91
2022-11-30T02:43:28.532Z,2.49
2022-11-30T02:46:45.164Z,2.67
2022-11-30T02:49:35.931Z,2.56
2022-11-30T02:52:04.712Z,2.83
2022-11-30T02:54:35.081Z,2.92
2022-11-30T02:57:02.124Z,2.98
2022-11-30T02:59:29.872Z,2.83
2022-11-30T03:01:57.547Z,2.62
2022-11-30T03:04:24.717Z,2.65
2022-11-30T03:06:54.258Z,2.31
2022-11-30T03:09:21.345Z,2.26
2022-11-30T03:11:50.415Z,2.41
2022-11-30T03:14:17.389Z,1.99
2022-11-30T03:16:44.463Z,1.84
2022-11-30T03:19:11.476Z,2.30
2022-11-30T03:21:38.577Z,2.01
2022-11-30T03:24:05.949Z,2.38
2022-11-30T03:26:32.989Z,2.20
2022-11-30T03:29:00.084Z,2.24
2022-11-30T03:31:27.221Z,2.35
2022-11-30T03:33:54.315Z,2.26
2022-11-30T03:36:21.334Z,2.41
2022-11-30T03:38:48.509Z,2.39
2022-11-30T03:41:17.973Z,2.24
2022-11-30T03:43:46.891Z,2.38
2022-11-30T03:46:16.673Z,2.17
2022-11-30T03:48:44.203Z,2.33
2022-11-30T03:51:13.379Z,2.24
2022-11-30T03:53:41.476Z,2.37
2022-11-30T03:56:10.680Z,2.36
2022-11-30T03:58:38.455Z,1.88
2022-11-30T04:01:10.918Z,2.06
2022-11-30T04:03:41.198Z,1.96
2022-11-30T04:06:13.449Z,2.34
2022-11-30T04:08:41.332Z,2.12
2022-11-30T04:11:08.932Z,1.84
2022-11-30T04:13:40.115Z,2.12
2022-11-30T04:16:08.389Z,1.89
2022-11-30T04:18:39.125Z,2.00
2022-11-30T04:21:07.373Z,2.21
2022-11-30T04:23:40.332Z,1.91
2022-11-30T04:26:14.790Z,1.98
2022-11-30T04:28:42.452Z,1.97
2022-11-30T04:31:10.101Z,1.87
2022-11-30T04:33:39.868Z,1.82
2022-11-30T04:36:18.869Z,1.83
2022-11-30T04:38:46.422Z,1.80
2022-11-30T04:41:13.808Z,1.85
2022-11-30T04:43:40.879Z,1.92
2022-11-30T04:46:08.188Z,1.74
2022-11-30T04:48:35.654Z,1.95
2022-11-30T04:51:06.201Z,2.06
2022-11-30T04:53:37.897Z,1.73
2022-11-30T04:56:10.172Z,2.06
2022-11-30T04:58:39.051Z,2.08
2022-11-30T05:01:07.183Z,1.66
2022-11-30T05:03:34.286Z,1.56
2022-11-30T05:06:01.599Z,1.95
2022-11-30T05:08:28.739Z,1.87
2022-11-30T05:10:55.792Z,1.53
2022-11-30T05:13:25.291Z,1.77
2022-11-30T05:15:53.984Z,2.05
2022-11-30T05:18:21.304Z,1.77
2022-11-30T05:20:53.220Z,2.03
2022-11-30T05:23:21.232Z,1.80
2022-11-30T05:25:48.639Z,1.93
2022-11-30T05:28:15.990Z,1.72
2022-11-30T05:30:44.010Z,1.97
2022-11-30T05:33:13.593Z,1.56
2022-11-30T05:35:40.658Z,1.77
2022-11-30T05:38:07.817Z,1.61
2022-11-30T05:43:04.724Z,2.00
2022-11-30T05:45:32.094Z,1.63
2022-11-30T05:47:59.161Z,1.35
2022-11-30T05:50:26.281Z,1.45
2022-11-30T05:52:56.612Z,1.53
2022-11-30T05:55:28.976Z,1.36
2022-11-30T05:57:55.970Z,1.57
2022-11-30T06:00:25.394Z,1.64
2022-11-30T06:03:00.405Z,1.62
2022-11-30T06:05:28.467Z,1.55
2022-11-30T06:07:59.306Z,1.26
2022-11-30T06:10:27.389Z,1.43
2022-11-30T06:12:54.369Z,1.19
2022-11-30T06:15:21.429Z,1.20
2022-11-30T06:17:48.441Z,1.06
2022-11-30T06:20:16.195Z,1.23
2022-11-30T06:22:46.694Z,1.34
2022-11-30T06:25:15.052Z,1.00
2022-11-30T06:27:43.745Z,0.82
2022-11-30T06:30:11.891Z,1.52
2022-11-30T06:32:39.011Z,1.14
2022-11-30T06:35:06.554Z,1.20
2022-11-30T06:37:36.806Z,1.21
2022-11-30T06:40:06.999Z,1.04
2022-11-30T06:42:34.991Z,1.11
2022-11-30T06:45:02.193Z,1.06
2022-11-30T06:47:29.212Z,1.45
2022-11-30T06:49:58.922Z,1.20
2022-11-30T06:52:28.905Z,0.81
2022-11-30T06:54:55.853Z,1.39
2022-11-30T06:57:30.450Z,1.26
2022-11-30T06:59:57.904Z,1.43
2022-11-30T07:02:27.153Z,1.41
2022-11-30T07:04:54.188Z,1.44
2022-11-30T07:07:21.563Z,1.20
2022-11-30T07:09:52.277Z,1.19
2022-11-30T07:12:19.439Z,1.36
2022-11-30T07:14:46.733Z,1.24
2022-11-30T07:17:14.077Z,1.60
2022-11-30T07:19:41.148Z,1.36
2022-11-30T07:22:08.128Z,1.23
2022-11-30T07:24:53.421Z,1.73
2022-11-30T07:27:20.436Z,2.00
2022-11-30T07:29:49.042Z,1.67
2022-11-30T07:32:16.098Z,1.39
2022-11-30T07:34:44.356Z,1.66
2022-11-30T07:37:13.541Z,1.50
2022-11-30T07:39:40.664Z,1.55
2022-11-30T07:42:07.966Z,1.30
2022-11-30T07:44:35.326Z,1.48
2022-11-30T07:47:02.665Z,1.43
2022-11-30T07:49:29.651Z,1.28
2022-11-30T07:51:56.751Z,1.53
2022-11-30T07:54:23.734Z,1.24
2022-11-30T07:56:50.734Z,1.58
2022-11-30T07:59:17.965Z,1.35
2022-11-30T08:01:45.130Z,1.23
2022-11-30T08:04:14.987Z,1.28
2022-11-30T08:06:42.235Z,1.58
2022-11-30T08:09:17.866Z,1.70
2022-11-30T08:11:49.182Z,1.84
2022-11-30T08:14:17.670Z,1.78
2022-11-30T08:16:44.836Z,1.86
2022-11-30T08:19:11.896Z,1.80
2022-11-30T08:21:38.895Z,2.10
2022-11-30T08:24:06.268Z,1.95
2022-11-30T08:26:34.421Z,2.07
2022-11-30T08:29:02.289Z,2.05
2022-11-30T08:31:35.930Z,2.33
2022-11-30T08:34:10.843Z,1.80
2022-11-30T08:36:41.853Z,1.94
2022-11-30T08:39:12.459Z,2.02
2022-11-30T08:41:39.489Z,2.13
2022-11-30T08:44:06.876Z,1.94
2022-11-30T08:46:50.890Z,1.76
2022-11-30T08:49:24.488Z,1.71
2022-11-30T08:54:46.056Z,1.41
2022-11-30T08:57:18.842Z,1.86
2022-11-30T08:59:46.588Z,1.80
2022-11-30T09:02:19.616Z,1.76
2022-11-30T09:04:49.376Z,1.86
2022-11-30T09:07:21.374Z,2.09
2022-11-30T09:09:48.497Z,2.05
2022-11-30T09:12:15.543Z,2.12
2022-11-30T09:14:42.818Z,2.19
2022-11-30T09:17:09.994Z,1.96
2022-11-30T09:19:37.222Z,2.13
2022-11-30T09:22:04.315Z,2.27
2022-11-30T09:24:31.396Z,2.01
2022-11-30T09:26:58.513Z,2.07
2022-11-30T09:29:25.591Z,2.10
2022-11-30T09:31:55.714Z,2.15
2022-11-30T09:34:22.705Z,1.95
2022-11-30T09:36:49.714Z,2.25
2022-11-30T09:39:16.815Z,2.14
2022-11-30T09:42:24.378Z,2.15
2022-11-30T09:44:57.154Z,2.14
2022-11-30T09:48:11.548Z,2.11
2022-11-30T09:50:44.109Z,2.13
2022-11-30T09:53:29.715Z,2.42
2022-11-30T09:55:58.946Z,2.06
2022-11-30T09:58:44.954Z,2.06
2022-11-30T10:01:20.838Z,2.27
2022-11-30T10:03:52.881Z,2.31
2022-11-30T10:07:02.697Z,2.22
2022-11-30T10:13:26.812Z,2.14
2022-11-30T10:16:19.278Z,2.15
2022-11-30T10:19:10.942Z,2.16
2022-11-30T10:22:04.939Z,2.33
2022-11-30T10:25:08.712Z,2.75
2022-11-30T10:27:55.568Z,2.61
2022-11-30T10:30:26.227Z,2.60
2022-11-30T10:32:56.634Z,2.47
2022-11-30T10:35:43.294Z,2.35
2022-11-30T10:38:33.937Z,2.71
2022-11-30T10:41:29.005Z,2.56
2022-11-30T10:44:04.075Z,2.71
2022-11-30T10:46:38.358Z,2.37
2022-11-30T10:49:19.917Z,2.42
2022-11-30T10:51:53.613Z,1.85
2022-11-30T10:54:22.820Z,2.08
2022-11-30T10:56:50.012Z,1.78
2022-11-30T10:59:33.666Z,2.13
2022-11-30T11:02:01.401Z,2.24
2022-11-30T11:04:28.675Z,1.96
2022-11-30T11:07:07.248Z,2.18
2022-11-30T11:09:53.594Z,1.81
2022-11-30T11:12:30.751Z,2.09
2022-11-30T11:15:32.355Z,2.11
2022-11-30T11:18:26.254Z,1.57
2022-11-30T11:21:08.194Z,1.83
2022-11-30T11:23:42.523Z,2.07
2022-11-30T11:26:29.603Z,2.11
2022-11-30T11:28:59.658Z,2.42
2022-11-30T11:31:49.179Z,1.89
2022-11-30T11:34:34.506Z,2.28
2022-11-30T11:37:33.881Z,2.31
2022-11-30T11:40:02.368Z,2.45
2022-11-30T11:42:53.054Z,2.16
2022-11-30T11:45:37.144Z,1.96
2022-11-30T11:48:37.704Z,1.98
2022-11-30T11:51:09.380Z,1.99
2022-11-30T11:53:51.699Z,1.79
2022-11-30T11:56:37.788Z,2.11
2022-11-30T11:59:42.247Z,1.92
2022-11-30T12:02:36.457Z,2.28
2022-11-30T12:05:17.780Z,2.47
2022-11-30T12:08:10.355Z,2.47
2022-11-30T12:10:51.868Z,2.48
2022-11-30T12:13:27.276Z,2.47
2022-11-30T12:16:12.390Z,2.39
2022-11-30T12:19:15.164Z,2.38
2022-11-30T12:22:15.142Z,2.51
2022-11-30T12:25:18.623Z,2.10
2022-11-30T12:28:35.093Z,2.09
2022-11-30T12:31:15.826Z,2.25
2022-11-30T12:33:42.876Z,2.02
2022-11-30T12:36:48.491Z,2.12
2022-11-30T12:39:32.331Z,2.11
2022-11-30T12:42:15.338Z,2.44
2022-11-30T12:44:45.965Z,1.58
2022-11-30T12:48:01.820Z,2.22
2022-11-30T12:51:10.948Z,2.42
2022-11-30T12:54:05.641Z,2.21
2022-11-30T12:56:55.842Z,1.90
2022-11-30T12:59:33.739Z,2.01
2022-11-30T13:02:40.948Z,2.46
2022-11-30T13:05:54.790Z,2.34
2022-11-30T13:08:34.975Z,2.35
2022-11-30T13:11:11.724Z,2.34
2022-11-30T13:13:52.700Z,2.38
2022-11-30T13:16:22.788Z,2.30
2022-11-30T13:18:52.946Z,2.53
2022-11-30T13:21:42.161Z,2.47
2022-11-30T13:24:29.155Z,2.75
2022-11-30T13:27:16.229Z,2.56
2022-11-30T13:30:16.967Z,2.77
2022-11-30T13:32:59.455Z,2.03
2022-11-30T13:35:29.597Z,2.22
2022-11-30T13:38:35.879Z,2.40
2022-11-30T13:41:05.713Z,2.48
2022-11-30T13:43:48.109Z,2.46
2022-11-30T13:46:33.023Z,2.16
2022-11-30T13:49:29.081Z,2.31
2022-11-30T13:52:21.577Z,2.33
2022-11-30T13:54:50.776Z,2.06
2022-11-30T13:57:30.411Z,2.00
2022-11-30T14:00:22.914Z,2.04
2022-11-30T14:02:54.507Z,2.30
2022-11-30T14:05:38.722Z,2.48
2022-11-30T14:08:13.913Z,1.96
2022-11-30T14:10:51.680Z,2.28
2022-11-30T14:13:22.766Z,1.86
2022-11-30T14:16:00.486Z,2.60
2022-11-30T14:18:40.487Z,2.45
2022-11-30T14:21:18.573Z,2.41
2022-11-30T14:24:15.797Z,2.03
2022-11-30T14:26:50.485Z,2.37
2022-11-30T14:29:31.502Z,2.04
2022-11-30T14:32:18.461Z,1.90
2022-11-30T14:34:52.309Z,2.18
2022-11-30T14:37:27.154Z,1.53
2022-11-30T14:39:56.753Z,1.93
2022-11-30T14:42:26.323Z,2.09
2022-11-30T14:44:57.674Z,1.71
2022-11-30T14:47:35.751Z,1.71
2022-11-30T14:50:08.341Z,2.14
2022-11-30T14:52:52.108Z,1.96
2022-11-30T14:55:57.575Z,1.83
2022-11-30T14:58:42.310Z,1.97
2022-11-30T15:01:25.410Z,1.87
2022-11-30T15:04:02.820Z,2.15
2022-11-30T15:06:33.420Z,1.68
2022-11-30T15:09:02.366Z,1.90
2022-11-30T15:11:29.908Z,2.16
2022-11-30T15:14:26.075Z,1.91
2022-11-30T15:16:58.078Z,2.02
2022-11-30T15:19:29.140Z,1.64
2022-11-30T15:21:58.368Z,2.04
2022-11-30T15:24:27.014Z,2.09
2022-11-30T15:27:10.596Z,2.28
2022-11-30T15:30:03.154Z,2.18
2022-11-30T15:32:30.285Z,2.17
2022-11-30T15:35:01.090Z,2.18
2022-11-30T15:37:38.969Z,1.74
2022-11-30T15:40:10.916Z,1.69
2022-11-30T15:42:40.549Z,2.13
2022-11-30T15:45:21.747Z,2.28
2022-11-30T15:47:49.171Z,1.78
2022-11-30T15:50:30.933Z,2.09
2022-11-30T15:53:03.801Z,2.19
2022-11-30T15:56:07.677Z,2.29
2022-11-30T15:59:08.202Z,2.02
2022-11-30T16:02:16.001Z,1.76
2022-11-30T16:04:58.268Z,2.18
2022-11-30T16:07:33.429Z,1.64
2022-11-30T16:10:16.459Z,1.72
2022-11-30T16:12:45.024Z,1.72
2022-11-30T16:15:20.033Z,2.26
2022-11-30T16:17:47.336Z,2.40
2022-11-30T16:20:15.879Z,2.44
2022-11-30T16:22:46.184Z,2.43
2022-11-30T16:25:17.372Z,2.40
2022-11-30T16:27:47.783Z,2.21
2022-11-30T16:30:19.258Z,2.22
2022-11-30T16:32:46.990Z,2.35
2022-11-30T16:35:50.900Z,2.19
2022-11-30T16:38:20.348Z,2.30
2022-11-30T16:40:47.596Z,2.32
2022-11-30T16:43:15.232Z,2.46
2022-11-30T16:45:44.192Z,2.15
2022-11-30T16:48:11.332Z,1.91
2022-11-30T16:50:44.638Z,2.02
2022-11-30T16:53:15.281Z,1.57
2022-11-30T16:55:42.909Z,2.29
2022-11-30T16:58:10.177Z,2.25
2022-11-30T17:00:40.129Z,2.05
2022-11-30T17:03:26.524Z,2.32
2022-11-30T17:05:53.565Z,2.46
2022-11-30T17:08:20.867Z,2.19
2022-11-30T17:10:53.074Z,2.41
2022-11-30T17:13:20.941Z,2.24
2022-11-30T17:15:49.325Z,1.60
2022-11-30T17:18:16.352Z,2.27
2022-11-30T17:20:43.392Z,2.22
2022-11-30T17:23:12.874Z,2.18
2022-11-30T17:25:40.027Z,2.26
2022-11-30T17:28:07.075Z,1.97
2022-11-30T17:30:36.620Z,2.28
2022-11-30T17:33:03.720Z,2.27
2022-11-30T17:35:31.139Z,2.35
2022-11-30T17:38:00.385Z,2.38
2022-11-30T17:40:27.372Z,2.13
2022-11-30T17:42:54.382Z,2.23
2022-11-30T17:45:21.399Z,2.49
2022-11-30T17:47:48.433Z,2.44
2022-11-30T17:50:15.593Z,2.49
2022-11-30T17:52:42.685Z,2.37
2022-11-30T17:55:10.244Z,2.38
2022-11-30T17:57:38.626Z,2.24
2022-11-30T18:00:08.661Z,2.55
2022-11-30T18:02:37.925Z,2.51
2022-11-30T18:05:05.706Z,2.09
2022-11-30T18:07:32.861Z,2.31
2022-11-30T18:10:01.824Z,2.31
2022-11-30T18:12:31.462Z,2.18
2022-11-30T18:14:58.549Z,2.34
2022-11-30T18:17:25.648Z,2.04
2022-11-30T18:19:52.658Z,2.48
2022-11-30T18:22:19.775Z,2.43
2022-11-30T18:24:47.223Z,2.56
2022-11-30T18:27:14.518Z,2.52
2022-11-30T18:29:41.945Z,2.45
2022-11-30T18:32:10.480Z,2.22
2022-11-30T18:34:42.467Z,1.98
2022-11-30T18:37:09.463Z,2.18
2022-11-30T18:39:38.530Z,2.17
2022-11-30T18:42:05.524Z,2.50
2022-11-30T18:44:33.114Z,2.21
2022-11-30T18:47:00.149Z,2.30
2022-11-30T18:49:27.198Z,2.33
2022-11-30T18:51:54.221Z,2.51
2022-11-30T18:54:21.308Z,2.37
2022-11-30T18:56:48.260Z,2.00
2022-11-30T18:59:20.845Z,2.24
2022-11-30T19:01:47.949Z,2.02
2022-11-30T19:04:15.046Z,2.31
2022-11-30T19:06:43.282Z,2.57
2022-11-30T19:09:14.491Z,2.37
2022-11-30T19:11:45.663Z,2.60
2022-11-30T19:14:15.307Z,2.24
2022-11-30T19:16:43.871Z,1.93
2022-11-30T19:19:14.095Z,2.02
2022-11-30T19:21:47.955Z,2.55
2022-11-30T19:24:16.405Z,2.64
2022-11-30T19:26:43.394Z,2.69
2022-11-30T19:29:12.047Z,2.67
2022-11-30T19:31:39.441Z,2.47
2022-11-30T19:34:10.808Z,2.81
2022-11-30T19:36:39.582Z,2.81
2022-11-30T19:39:06.681Z,2.39
2022-11-30T19:41:35.763Z,2.48
2022-11-30T19:44:04.273Z,2.52
2022-11-30T19:46:33.194Z,2.35
2022-11-30T19:49:04.144Z,2.70
2022-11-30T19:51:32.087Z,2.81
2022-11-30T19:53:59.791Z,2.80
2022-11-30T19:56:31.593Z,2.79
2022-11-30T19:59:04.378Z,2.71
2022-11-30T20:01:35.052Z,2.13
2022-11-30T20:04:04.845Z,2.61
2022-11-30T20:06:38.439Z,2.59
2022-11-30T20:09:08.563Z,2.70
2022-11-30T20:11:35.613Z,2.59
2022-11-30T20:14:02.901Z,2.69
2022-11-30T20:16:30.221Z,2.75
2022-11-30T20:19:03.417Z,2.64
2022-11-30T20:21:34.421Z,2.87
2022-11-30T20:24:06.742Z,2.86
2022-11-30T20:26:40.417Z,2.87
2022-11-30T20:29:16.357Z,2.81
2022-11-30T20:31:48.477Z,2.65
2022-11-30T20:34:16.631Z,2.29
2022-11-30T20:36:46.984Z,2.71
2022-11-30T20:39:15.520Z,2.73
2022-11-30T20:41:44.844Z,2.96
2022-11-30T20:44:17.023Z,2.40
2022-11-30T20:46:44.405Z,2.54
2022-11-30T20:49:17.985Z,2.72
2022-11-30T20:51:47.013Z,2.95
2022-11-30T20:54:15.641Z,2.59
2022-11-30T20:56:42.706Z,2.23
2022-11-30T20:59:19.563Z,2.56
2022-11-30T21:01:48.122Z,2.80
2022-11-30T21:04:15.182Z,2.38
2022-11-30T21:06:45.634Z,2.56
2022-11-30T21:09:18.164Z,2.40
2022-11-30T21:11:47.074Z,2.59
2022-11-30T21:14:14.833Z,2.44
2022-11-30T21:16:41.964Z,2.73
2022-11-30T21:19:14.481Z,2.67
2022-11-30T21:21:43.649Z,2.61
2022-11-30T21:24:12.049Z,2.79
2022-11-30T21:26:42.705Z,2.84
2022-11-30T21:29:15.949Z,2.21
2022-11-30T21:31:43.682Z,2.39
2022-11-30T21:34:13.834Z,2.65
2022-11-30T21:36:40.886Z,2.93
2022-11-30T21:39:15.734Z,2.72
2022-11-30T21:41:42.867Z,2.50
2022-11-30T21:44:15.344Z,2.79
2022-11-30T21:46:45.645Z,2.58
2022-11-30T21:49:14.997Z,2.73
2022-11-30T21:51:42.805Z,2.93
2022-11-30T21:54:13.154Z,2.36
2022-11-30T21:56:44.939Z,2.52
2022-11-30T21:59:14.728Z,2.44
2022-11-30T22:01:47.767Z,2.63
2022-11-30T22:04:15.767Z,2.45
2022-11-30T22:06:43.498Z,2.68
2022-11-30T22:09:17.059Z,2.43
2022-11-30T22:11:45.543Z,2.74
2022-11-30T22:14:16.288Z,1.93
2022-11-30T22:16:43.950Z,1.97
2022-11-30T22:19:11.295Z,2.22
2022-11-30T22:21:38.659Z,2.57
2022-11-30T22:24:09.813Z,2.48
2022-11-30T22:26:42.652Z,2.75
2022-11-30T22:29:22.620Z,2.48
2022-11-30T22:31:52.830Z,2.82
2022-11-30T22:34:21.099Z,2.69
2022-11-30T22:36:50.759Z,2.76
2022-11-30T22:39:20.718Z,2.78
2022-11-30T22:41:54.569Z,2.92
2022-11-30T22:44:26.542Z,2.95
2022-11-30T22:46:53.727Z,3.00
2022-11-30T22:49:22.048Z,2.72
2022-11-30T22:51:49.701Z,2.67
2022-11-30T22:54:17.349Z,2.26
2022-11-30T22:56:46.748Z,2.73
2022-11-30T22:59:14.542Z,2.58
2022-11-30T23:01:47.778Z,2.84
2022-11-30T23:04:21.287Z,2.60
2022-11-30T23:06:50.051Z,2.97
2022-11-30T23:09:22.915Z,2.92
2022-11-30T23:11:52.847Z,3.12
2022-11-30T23:14:20.200Z,2.78
2022-11-30T23:16:49.436Z,2.46
2022-11-30T23:19:16.801Z,2.72
2022-11-30T23:21:48.871Z,2.65
2022-11-30T23:24:23.909Z,2.55
2022-11-30T23:26:51.093Z,2.53
2022-11-30T23:29:21.125Z,2.43
2022-11-30T23:31:48.635Z,2.50
2022-11-30T23:34:22.332Z,2.37
2022-11-30T23:36:50.472Z,2.75
2022-11-30T23:39:19.507Z,2.76
2022-11-30T23:41:49.116Z,2.89
2022-11-30T23:44:16.469Z,2.95
2022-11-30T23:46:43.539Z,2.90
2022-11-30T23:49:14.239Z,2.87
2022-11-30T23:51:42.003Z,2.92
2022-11-30T23:54:09.394Z,2.73
2022-11-30T23:56:36.476Z,2.42
2022-11-30T23:59:03.566Z,2.73
